sensor_id;sensor_type;location;lat;lon;timestamp;pressure;altitude;pressure_sealevel;temperature
59339;BMP280;45117;50.960;5.500;2023-08-01T00:02:22;99022.03;;;16.90
59339;BMP280;45117;50.960;5.500;2023-08-01T00:04:49;99006.97;;;16.78
59339;BMP280;45117;50.960;5.500;2023-08-01T00:07:16;98983.72;;;16.66
59339;BMP280;45117;50.960;5.500;2023-08-01T00:09:42;99033.47;;;17.05
59339;BMP280;45117;50.960;5.500;2023-08-01T00:12:09;99049.75;;;17.11
59339;BMP280;45117;50.960;5.500;2023-08-01T00:14:37;98966.63;;;16.54
59339;BMP280;45117;50.960;5.500;2023-08-01T00:17:04;99045.78;;;17.06
59339;BMP280;45117;50.960;5.500;2023-08-01T00:19:31;99034.41;;;16.97
59339;BMP280;45117;50.960;5.500;2023-08-01T00:21:57;99005.69;;;16.73
59339;BMP280;45117;50.960;5.500;2023-08-01T00:24:24;99008.16;;;16.77
59339;BMP280;45117;50.960;5.500;2023-08-01T00:26:50;99044.25;;;16.94
59339;BMP280;45117;50.960;5.500;2023-08-01T00:29:20;98990.28;;;16.59
59339;BMP280;45117;50.960;5.500;2023-08-01T00:31:48;99031.34;;;16.78
59339;BMP280;45117;50.960;5.500;2023-08-01T00:34:15;99028.38;;;16.81
59339;BMP280;45117;50.960;5.500;2023-08-01T00:36:41;99025.72;;;16.87
59339;BMP280;45117;50.960;5.500;2023-08-01T00:39:08;99026.91;;;16.80
59339;BMP280;45117;50.960;5.500;2023-08-01T00:41:34;99016.06;;;16.80
59339;BMP280;45117;50.960;5.500;2023-08-01T00:44:01;99016.88;;;16.87
59339;BMP280;45117;50.960;5.500;2023-08-01T00:46:28;99020.78;;;16.85
59339;BMP280;45117;50.960;5.500;2023-08-01T00:48:56;98975.00;;;16.56
59339;BMP280;45117;50.960;5.500;2023-08-01T00:51:26;99002.22;;;16.73
59339;BMP280;45117;50.960;5.500;2023-08-01T00:53:52;98966.56;;;16.48
59339;BMP280;45117;50.960;5.500;2023-08-01T00:56:19;99016.34;;;16.82
59339;BMP280;45117;50.960;5.500;2023-08-01T00:58:46;98947.50;;;16.32
59339;BMP280;45117;50.960;5.500;2023-08-01T01:01:13;99026.69;;;16.78
59339;BMP280;45117;50.960;5.500;2023-08-01T01:03:39;98971.94;;;16.43
59339;BMP280;45117;50.960;5.500;2023-08-01T01:06:11;99012.06;;;16.70
59339;BMP280;45117;50.960;5.500;2023-08-01T01:08:41;98988.19;;;16.43
59339;BMP280;45117;50.960;5.500;2023-08-01T01:11:07;99022.06;;;16.53
59339;BMP280;45117;50.960;5.500;2023-08-01T01:13:34;99004.91;;;16.36
59339;BMP280;45117;50.960;5.500;2023-08-01T01:16:00;99018.28;;;16.45
59339;BMP280;45117;50.960;5.500;2023-08-01T01:18:27;98982.88;;;16.22
59339;BMP280;45117;50.960;5.500;2023-08-01T01:20:55;98986.78;;;16.21
59339;BMP280;45117;50.960;5.500;2023-08-01T01:23:22;98950.44;;;16.02
59339;BMP280;45117;50.960;5.500;2023-08-01T01:25:51;99006.69;;;16.44
59339;BMP280;45117;50.960;5.500;2023-08-01T01:28:18;98948.97;;;16.01
59339;BMP280;45117;50.960;5.500;2023-08-01T01:30:45;98989.41;;;16.10
59339;BMP280;45117;50.960;5.500;2023-08-01T01:33:13;99034.88;;;16.27
59339;BMP280;45117;50.960;5.500;2023-08-01T01:35:40;98975.16;;;15.89
59339;BMP280;45117;50.960;5.500;2023-08-01T01:38:08;99037.31;;;16.24
59339;BMP280;45117;50.960;5.500;2023-08-01T01:40:35;98976.09;;;15.81
59339;BMP280;45117;50.960;5.500;2023-08-01T01:43:02;98973.50;;;15.92
59339;BMP280;45117;50.960;5.500;2023-08-01T01:45:28;98964.59;;;15.86
59339;BMP280;45117;50.960;5.500;2023-08-01T01:47:55;98984.81;;;15.90
59339;BMP280;45117;50.960;5.500;2023-08-01T01:50:21;98965.38;;;15.66
59339;BMP280;45117;50.960;5.500;2023-08-01T01:52:48;98967.44;;;15.77
59339;BMP280;45117;50.960;5.500;2023-08-01T01:55:16;99027.31;;;16.10
59339;BMP280;45117;50.960;5.500;2023-08-01T01:57:43;98975.25;;;15.69
59339;BMP280;45117;50.960;5.500;2023-08-01T02:00:11;98982.59;;;15.69
59339;BMP280;45117;50.960;5.500;2023-08-01T02:02:38;99020.03;;;15.96
59339;BMP280;45117;50.960;5.500;2023-08-01T02:05:05;99021.00;;;15.93
59339;BMP280;45117;50.960;5.500;2023-08-01T02:07:31;99020.25;;;15.92
59339;BMP280;45117;50.960;5.500;2023-08-01T02:09:59;99032.56;;;15.93
59339;BMP280;45117;50.960;5.500;2023-08-01T02:12:27;99017.63;;;15.78
59339;BMP280;45117;50.960;5.500;2023-08-01T02:14:56;99027.22;;;15.79
59339;BMP280;45117;50.960;5.500;2023-08-01T02:17:23;99037.03;;;15.76
59339;BMP280;45117;50.960;5.500;2023-08-01T02:19:49;99028.56;;;15.69
59339;BMP280;45117;50.960;5.500;2023-08-01T02:22:17;99035.03;;;15.71
59339;BMP280;45117;50.960;5.500;2023-08-01T02:24:43;99038.19;;;15.70
59339;BMP280;45117;50.960;5.500;2023-08-01T02:27:10;99028.72;;;15.59
59339;BMP280;45117;50.960;5.500;2023-08-01T02:29:38;99046.22;;;15.64
59339;BMP280;45117;50.960;5.500;2023-08-01T02:32:05;99039.09;;;15.61
59339;BMP280;45117;50.960;5.500;2023-08-01T02:34:31;99036.56;;;15.57
59339;BMP280;45117;50.960;5.500;2023-08-01T02:36:58;99038.19;;;15.49
59339;BMP280;45117;50.960;5.500;2023-08-01T02:39:25;99053.34;;;15.61
59339;BMP280;45117;50.960;5.500;2023-08-01T02:41:52;99056.78;;;15.62
59339;BMP280;45117;50.960;5.500;2023-08-01T02:44:17;99031.53;;;15.50
59339;BMP280;45117;50.960;5.500;2023-08-01T02:46:45;99008.72;;;15.31
59339;BMP280;45117;50.960;5.500;2023-08-01T02:49:12;99033.72;;;15.46
59339;BMP280;45117;50.960;5.500;2023-08-01T02:51:38;99055.78;;;15.59
59339;BMP280;45117;50.960;5.500;2023-08-01T02:54:05;99003.34;;;15.16
59339;BMP280;45117;50.960;5.500;2023-08-01T02:56:33;99059.84;;;15.49
59339;BMP280;45117;50.960;5.500;2023-08-01T02:59:00;99061.06;;;15.48
59339;BMP280;45117;50.960;5.500;2023-08-01T03:01:28;99042.44;;;15.36
59339;BMP280;45117;50.960;5.500;2023-08-01T03:03:56;99013.59;;;15.12
59339;BMP280;45117;50.960;5.500;2023-08-01T03:06:22;99063.22;;;15.44
59339;BMP280;45117;50.960;5.500;2023-08-01T03:08:49;99079.00;;;15.51
59339;BMP280;45117;50.960;5.500;2023-08-01T03:11:16;99069.72;;;15.52
59339;BMP280;45117;50.960;5.500;2023-08-01T03:13:43;99074.16;;;15.55
59339;BMP280;45117;50.960;5.500;2023-08-01T03:16:09;99004.88;;;15.02
59339;BMP280;45117;50.960;5.500;2023-08-01T03:18:36;99072.94;;;15.56
59339;BMP280;45117;50.960;5.500;2023-08-01T03:21:04;99009.69;;;15.13
59339;BMP280;45117;50.960;5.500;2023-08-01T03:23:31;99036.19;;;15.29
59339;BMP280;45117;50.960;5.500;2023-08-01T03:25:57;99064.00;;;15.50
59339;BMP280;45117;50.960;5.500;2023-08-01T03:28:25;99016.13;;;15.16
59339;BMP280;45117;50.960;5.500;2023-08-01T03:30:53;99068.44;;;15.48
59339;BMP280;45117;50.960;5.500;2023-08-01T03:33:20;99014.34;;;15.13
59339;BMP280;45117;50.960;5.500;2023-08-01T03:35:46;99036.69;;;15.28
59339;BMP280;45117;50.960;5.500;2023-08-01T03:38:14;99074.44;;;15.57
59339;BMP280;45117;50.960;5.500;2023-08-01T03:40:41;99051.09;;;15.40
59339;BMP280;45117;50.960;5.500;2023-08-01T03:43:07;99048.31;;;15.34
59339;BMP280;45117;50.960;5.500;2023-08-01T03:45:35;99031.69;;;15.21
59339;BMP280;45117;50.960;5.500;2023-08-01T03:48:01;99060.03;;;15.46
59339;BMP280;45117;50.960;5.500;2023-08-01T03:50:28;99076.13;;;15.55
59339;BMP280;45117;50.960;5.500;2023-08-01T03:52:55;99054.53;;;15.40
59339;BMP280;45117;50.960;5.500;2023-08-01T03:55:23;99054.28;;;15.38
59339;BMP280;45117;50.960;5.500;2023-08-01T03:57:49;99009.63;;;15.08
59339;BMP280;45117;50.960;5.500;2023-08-01T04:00:17;99059.22;;;15.40
59339;BMP280;45117;50.960;5.500;2023-08-01T04:02:44;99078.78;;;15.49
59339;BMP280;45117;50.960;5.500;2023-08-01T04:05:11;99075.03;;;15.47
59339;BMP280;45117;50.960;5.500;2023-08-01T04:07:38;99066.38;;;15.43
59339;BMP280;45117;50.960;5.500;2023-08-01T04:10:05;99022.75;;;15.15
59339;BMP280;45117;50.960;5.500;2023-08-01T04:12:34;99064.41;;;15.43
59339;BMP280;45117;50.960;5.500;2023-08-01T04:15:01;99024.25;;;15.16
59339;BMP280;45117;50.960;5.500;2023-08-01T04:17:28;99069.25;;;15.39
59339;BMP280;45117;50.960;5.500;2023-08-01T04:19:55;99064.72;;;15.30
59339;BMP280;45117;50.960;5.500;2023-08-01T04:22:22;99074.97;;;15.41
59339;BMP280;45117;50.960;5.500;2023-08-01T04:24:49;99006.75;;;14.96
59339;BMP280;45117;50.960;5.500;2023-08-01T04:27:15;99070.78;;;15.40
59339;BMP280;45117;50.960;5.500;2023-08-01T04:29:44;99061.91;;;15.40
59339;BMP280;45117;50.960;5.500;2023-08-01T04:32:10;99071.25;;;15.39
59339;BMP280;45117;50.960;5.500;2023-08-01T04:34:39;99054.94;;;15.33
59339;BMP280;45117;50.960;5.500;2023-08-01T04:37:05;99023.41;;;15.10
59339;BMP280;45117;50.960;5.500;2023-08-01T04:39:32;99070.03;;;15.40
59339;BMP280;45117;50.960;5.500;2023-08-01T04:41:59;99051.81;;;15.20
59339;BMP280;45117;50.960;5.500;2023-08-01T04:44:25;99024.56;;;15.03
59339;BMP280;45117;50.960;5.500;2023-08-01T04:46:53;99079.34;;;15.39
59339;BMP280;45117;50.960;5.500;2023-08-01T04:49:20;99074.59;;;15.33
59339;BMP280;45117;50.960;5.500;2023-08-01T04:51:48;99088.94;;;15.40
59339;BMP280;45117;50.960;5.500;2023-08-01T04:54:15;99017.00;;;14.92
59339;BMP280;45117;50.960;5.500;2023-08-01T04:56:41;99049.38;;;15.22
59339;BMP280;45117;50.960;5.500;2023-08-01T04:59:08;99022.84;;;15.06
59339;BMP280;45117;50.960;5.500;2023-08-01T05:01:35;99084.66;;;15.48
59339;BMP280;45117;50.960;5.500;2023-08-01T05:04:03;99024.78;;;15.05
59339;BMP280;45117;50.960;5.500;2023-08-01T05:06:30;99049.28;;;15.31
59339;BMP280;45117;50.960;5.500;2023-08-01T05:08:56;99042.28;;;15.24
59339;BMP280;45117;50.960;5.500;2023-08-01T05:11:23;99071.13;;;15.48
59339;BMP280;45117;50.960;5.500;2023-08-01T05:13:49;99081.53;;;15.55
59339;BMP280;45117;50.960;5.500;2023-08-01T05:16:17;99083.56;;;15.60
59339;BMP280;45117;50.960;5.500;2023-08-01T05:18:44;99093.91;;;15.61
59339;BMP280;45117;50.960;5.500;2023-08-01T05:21:12;99014.81;;;15.11
59339;BMP280;45117;50.960;5.500;2023-08-01T05:23:38;99021.69;;;15.27
59339;BMP280;45117;50.960;5.500;2023-08-01T05:26:05;99019.66;;;15.22
59339;BMP280;45117;50.960;5.500;2023-08-01T05:28:31;99036.25;;;15.35
59339;BMP280;45117;50.960;5.500;2023-08-01T05:30:58;99100.88;;;15.68
59339;BMP280;45117;50.960;5.500;2023-08-01T05:33:25;99094.72;;;15.68
59339;BMP280;45117;50.960;5.500;2023-08-01T05:35:51;99093.63;;;15.59
59339;BMP280;45117;50.960;5.500;2023-08-01T05:38:19;99097.84;;;15.81
59339;BMP280;45117;50.960;5.500;2023-08-01T05:40:46;99111.03;;;15.93
59339;BMP280;45117;50.960;5.500;2023-08-01T05:43:12;99093.47;;;15.83
59339;BMP280;45117;50.960;5.500;2023-08-01T05:45:39;99120.38;;;15.92
59339;BMP280;45117;50.960;5.500;2023-08-01T05:48:06;99124.66;;;15.99
59339;BMP280;45117;50.960;5.500;2023-08-01T05:50:32;99108.59;;;15.96
59339;BMP280;45117;50.960;5.500;2023-08-01T05:52:59;99118.22;;;15.97
59339;BMP280;45117;50.960;5.500;2023-08-01T05:55:27;99039.34;;;15.43
59339;BMP280;45117;50.960;5.500;2023-08-01T05:57:53;99085.25;;;15.98
59339;BMP280;45117;50.960;5.500;2023-08-01T06:00:20;99038.44;;;15.92
59339;BMP280;45117;50.960;5.500;2023-08-01T06:02:47;99127.16;;;16.49
59339;BMP280;45117;50.960;5.500;2023-08-01T06:05:15;99097.34;;;16.49
